Meiringen, Switzerland
Current Conditions -  °F | °C
As of 9:50 PM on Tuesday 21 Oct 2014 (Local Time) from LSMM Reporting Station
Rain Showers Rain Showers  
Wind Chill: 50°   Ceiling: 3200
Heat Index: 50°   Visibility: 4mi
Dew Point: 45°   Wind: 13mph
Humidity: 82%   Direction: 290°WNW
Pressure: 30"   Gusts: 26mph
Location:  46.73°N, 8.19°E
Report Text: LSMM 211950Z AUTO 29011G23KT 240V330 7000NDV SHRA FEW024 BKN032 OVC042 10/07 Q1016 RMK GRN
Loading
Personal Weather Stations






























Interactive Weather Map
Tropical Storm Tracking
New forecast layout! Learn more

10-Day Weather Forecast

Advertisements
Track Severe Weather on mobile